Time;durP1;ratioP1;P1;durP2;ratioP2;P2;SDS_P1;SDS_P2;PMS_P1;PMS_P2;Temp;Humidity;BMP_temperature;BMP_pressure;BME280_temperature;BME280_humidity;BME280_pressure;Samples;Min_cycle;Max_cycle;Signal;HPM_P1;HPM_P2
2023/04/21 00:01:57;;;;;;;;;;;;;;;;;;5112664;28;1886;-49
2023/04/21 00:04:26;;;;;;;;;;;;;;;;;;5112296;28;2010;-39
2023/04/21 00:06:53;;;;;;;;;;;;;;;;;;5112454;28;2103;-40
2023/04/21 00:09:21;;;;;;;;;;;;;;;;;;5112446;28;1791;-40
2023/04/21 00:11:48;;;;;;;;;;;;;;;;;;5112264;28;1990;-40
2023/04/21 00:14:15;;;;;;;;;;;;;;;;;;5111921;28;2038;-40
2023/04/21 00:16:42;;;;;;;;;;;;;;;;;;5112164;28;1909;-40
2023/04/21 00:19:12;;;;;;;;;;;;;;;;;;5111836;28;1980;-40
2023/04/21 00:21:40;;;;;;;;;;;;;;;;;;5112223;28;1817;-40
2023/04/21 00:24:08;;;;;;;;;;;;;;;;;;5111844;28;2023;-39
2023/04/21 00:26:35;;;;;;;;;;;;;;;;;;5112277;28;2017;-40
2023/04/21 00:29:02;;;;;;;;;;;;;;;;;;5111810;28;2170;-39
2023/04/21 00:31:30;;;;;;;;;;;;;;;;;;5093506;28;2052;-41
2023/04/21 00:33:57;;;;;;;;;;;;;;;;;;5111996;28;1596;-40
2023/04/21 00:36:27;;;;;;;;;;;;;;;;;;5111814;28;2112;-40
2023/04/21 00:38:54;;;;;;;;;;;;;;;;;;5111781;28;2158;-40
2023/04/21 00:41:22;;;;;;;;;;;;;;;;;;5093784;28;2340;-40
2023/04/21 00:44:18;;;;;;;;;;;;;;;;;;5111637;28;1894;-58
2023/04/21 00:46:47;;;;;;;;;;;;;;;;;;5081566;28;1953;-40
2023/04/21 00:49:16;;;;;;;;;;;;;;;;;;5073265;28;1794;-39
2023/04/21 00:51:43;;;;;;;;;;;;;;;;;;5091144;28;2017;-40
2023/04/21 00:54:10;;;;;;;;;;;;;;;;;;5072864;28;1977;-47
2023/04/21 00:56:38;;;;;;;;;;;;;;;;;;5073250;28;1937;-42
2023/04/21 00:59:05;;;;;;;;;;;;;;;;;;5091074;28;1915;-39
2023/04/21 01:01:36;;;;;;;;;;;;;;;;;;5090759;28;1876;-40
2023/04/21 01:04:03;;;;;;;;;;;;;;;;;;5091042;28;2001;-40
2023/04/21 01:06:32;;;;;;;;;;;;;;;;;;5091201;28;1675;-52
2023/04/21 01:09:00;;;;;;;;;;;;;;;;;;5090955;28;2176;-43
2023/04/21 01:11:27;;;;;;;;;;;;;;;;;;5072857;28;2000;-39
2023/04/21 01:13:54;;;;;;;;;;;;;;;;;;5090965;28;1998;-44
2023/04/21 01:16:22;;;;;;;;;;;;;;;;;;5091222;28;1995;-40
2023/04/21 01:18:52;;;;;;;;;;;;;;;;;;5091184;28;2102;-54
2023/04/21 01:21:20;;;;;;;;;;;;;;;;;;5072699;28;2037;-40
2023/04/21 01:23:47;;;;;;;;;;;;;;;;;;5072693;28;1793;-40
2023/04/21 01:26:17;;;;;;;;;;;;;;;;;;5091034;28;1951;-40
2023/04/21 01:28:46;;;;;;;;;;;;;;;;;;5072657;28;2110;-40
2023/04/21 01:31:14;;;;;;;;;;;;;;;;;;5072809;28;2050;-39
2023/04/21 01:33:42;;;;;;;;;;;;;;;;;;5091280;28;2160;-40
2023/04/21 01:36:10;;;;;;;;;;;;;;;;;;5090995;28;2388;-47
2023/04/21 01:38:38;;;;;;;;;;;;;;;;;;5090830;28;1975;-40
2023/04/21 01:41:06;;;;;;;;;;;;;;;;;;5090689;28;2118;-45
2023/04/21 01:43:33;;;;;;;;;;;;;;;;;;5072761;28;2072;-44
2023/04/21 01:46:00;;;;;;;;;;;;;;;;;;5090341;28;1864;-40
2023/04/21 01:48:31;;;;;;;;;;;;;;;;;;5090001;28;1384;-40
2023/04/21 01:50:58;;;;;;;;;;;;;;;;;;5092854;28;1931;-49
2023/04/21 01:53:25;;;;;;;;;;;;;;;;;;5111254;28;2023;-44
2023/04/21 01:55:53;;;;;;;;;;;;;;;;;;5092405;28;2268;-53
2023/04/21 01:58:20;;;;;;;;;;;;;;;;;;5110878;28;2118;-40
2023/04/21 02:00:48;;;;;;;;;;;;;;;;;;5092593;28;1872;-45
2023/04/21 02:03:15;;;;;;;;;;;;;;;;;;5092766;28;1952;-40
2023/04/21 02:05:44;;;;;;;;;;;;;;;;;;5111056;28;2047;-40
2023/04/21 02:08:12;;;;;;;;;;;;;;;;;;5114257;28;1988;-48
2023/04/21 02:10:40;;;;;;;;;;;;;;;;;;5115092;28;1975;-39
2023/04/21 02:13:10;;;;;;;;;;;;;;;;;;5096660;28;1895;-59
2023/04/21 02:15:38;;;;;;;;;;;;;;;;;;5096087;28;2130;-40
2023/04/21 02:18:07;;;;;;;;;;;;;;;;;;5096186;28;1978;-40
2023/04/21 02:20:34;;;;;;;;;;;;;;;;;;5096094;28;2174;-40
2023/04/21 02:23:01;;;;;;;;;;;;;;;;;;5114224;28;2001;-40
2023/04/21 02:25:29;;;;;;;;;;;;;;;;;;5114347;28;1934;-40
2023/04/21 02:27:56;;;;;;;;;;;;;;;;;;5114861;28;1926;-40
2023/04/21 02:30:26;;;;;;;;;;;;;;;;;;5092792;28;1950;-39
2023/04/21 02:32:53;;;;;;;;;;;;;;;;;;5093842;28;2046;-40
2023/04/21 02:35:20;;;;;;;;;;;;;;;;;;5093783;28;1926;-39
2023/04/21 02:37:49;;;;;;;;;;;;;;;;;;5093820;28;1977;-39
2023/04/21 02:40:16;;;;;;;;;;;;;;;;;;5075554;28;2031;-41
2023/04/21 02:42:44;;;;;;;;;;;;;;;;;;5075575;28;1884;-48
2023/04/21 02:45:11;;;;;;;;;;;;;;;;;;5075025;28;2376;-38
2023/04/21 02:47:39;;;;;;;;;;;;;;;;;;5093733;28;1826;-41
2023/04/21 02:50:09;;;;;;;;;;;;;;;;;;5093477;28;2187;-41
2023/04/21 02:52:39;;;;;;;;;;;;;;;;;;5075177;28;1978;-40
2023/04/21 02:55:07;;;;;;;;;;;;;;;;;;5093667;28;1886;-40
2023/04/21 02:57:34;;;;;;;;;;;;;;;;;;5075002;28;2164;-41
2023/04/21 03:00:01;;;;;;;;;;;;;;;;;;5075209;28;1904;-50
2023/04/21 03:02:28;;;;;;;;;;;;;;;;;;5075315;28;1977;-42
2023/04/21 03:04:56;;;;;;;;;;;;;;;;;;5093088;28;2135;-39
2023/04/21 03:07:23;;;;;;;;;;;;;;;;;;5093684;28;2072;-42
2023/04/21 03:09:50;;;;;;;;;;;;;;;;;;5093346;28;2480;-39
2023/04/21 03:12:17;;;;;;;;;;;;;;;;;;5093572;28;2020;-39
2023/04/21 03:14:45;;;;;;;;;;;;;;;;;;5093481;28;1977;-38
2023/04/21 03:17:12;;;;;;;;;;;;;;;;;;5092596;28;2024;-39
2023/04/21 03:19:39;;;;;;;;;;;;;;;;;;5093144;28;1915;-39
2023/04/21 03:22:06;;;;;;;;;;;;;;;;;;5092884;28;2195;-42
2023/04/21 03:24:34;;;;;;;;;;;;;;;;;;5074450;28;1940;-41
2023/04/21 03:27:02;;;;;;;;;;;;;;;;;;5092467;28;2027;-45
2023/04/21 03:29:29;;;;;;;;;;;;;;;;;;5092777;28;2025;-40
2023/04/21 03:31:56;;;;;;;;;;;;;;;;;;5092858;28;1948;-40
2023/04/21 03:34:24;;;;;;;;;;;;;;;;;;5074313;28;2012;-51
2023/04/21 03:36:51;;;;;;;;;;;;;;;;;;5074385;28;2157;-58
2023/04/21 03:39:20;;;;;;;;;;;;;;;;;;5092501;28;2318;-58
2023/04/21 03:41:49;;;;;;;;;;;;;;;;;;5074544;28;1983;-52
2023/04/21 03:44:16;;;;;;;;;;;;;;;;;;5074602;28;2061;-41
2023/04/21 03:46:43;;;;;;;;;;;;;;;;;;5094942;28;1931;-40
2023/04/21 03:49:11;;;;;;;;;;;;;;;;;;5112832;28;1986;-56
2023/04/21 03:51:38;;;;;;;;;;;;;;;;;;5094477;28;1951;-40
2023/04/21 03:54:05;;;;;;;;;;;;;;;;;;5112666;28;2006;-41
2023/04/21 03:56:33;;;;;;;;;;;;;;;;;;5112491;28;2154;-39
2023/04/21 03:59:00;;;;;;;;;;;;;;;;;;5112668;28;1939;-40
2023/04/21 04:01:27;;;;;;;;;;;;;;;;;;5112344;28;1947;-39
2023/04/21 04:03:54;;;;;;;;;;;;;;;;;;5112538;28;2126;-40
2023/04/21 04:06:22;;;;;;;;;;;;;;;;;;5112700;28;2055;-40
2023/04/21 04:08:49;;;;;;;;;;;;;;;;;;5112489;28;2003;-47
2023/04/21 04:11:16;;;;;;;;;;;;;;;;;;5112034;28;2030;-40
2023/04/21 04:13:43;;;;;;;;;;;;;;;;;;5112276;28;1963;-41
2023/04/21 04:16:11;;;;;;;;;;;;;;;;;;5112187;28;2039;-46
2023/04/21 04:18:38;;;;;;;;;;;;;;;;;;5112069;28;1979;-49
2023/04/21 04:21:08;;;;;;;;;;;;;;;;;;5111779;28;2017;-44
2023/04/21 04:23:36;;;;;;;;;;;;;;;;;;5111959;28;2213;-44
2023/04/21 04:26:04;;;;;;;;;;;;;;;;;;5112232;28;1804;-42
2023/04/21 04:28:32;;;;;;;;;;;;;;;;;;5111483;28;2024;-45
2023/04/21 04:30:59;;;;;;;;;;;;;;;;;;5111637;28;2011;-45
2023/04/21 04:33:27;;;;;;;;;;;;;;;;;;5111826;28;2240;-51
2023/04/21 04:35:57;;;;;;;;;;;;;;;;;;5111525;28;2051;-51
2023/04/21 04:38:24;;;;;;;;;;;;;;;;;;5111744;28;2028;-40
2023/04/21 04:40:56;;;;;;;;;;;;;;;;;;5111720;28;1925;-52
2023/04/21 04:43:24;;;;;;;;;;;;;;;;;;5111922;28;1908;-52
2023/04/21 04:45:52;;;;;;;;;;;;;;;;;;5111762;28;1986;-58
2023/04/21 04:48:19;;;;;;;;;;;;;;;;;;5095377;28;1952;-61
2023/04/21 04:50:47;;;;;;;;;;;;;;;;;;5091522;28;2026;-40
2023/04/21 04:53:14;;;;;;;;;;;;;;;;;;5091442;28;2080;-46
2023/04/21 04:55:41;;;;;;;;;;;;;;;;;;5091322;28;1844;-40
2023/04/21 04:58:09;;;;;;;;;;;;;;;;;;5090829;28;2000;-50
2023/04/21 05:00:36;;;;;;;;;;;;;;;;;;5073127;28;2068;-41
2023/04/21 05:03:04;;;;;;;;;;;;;;;;;;5091411;28;1989;-40
2023/04/21 05:05:31;;;;;;;;;;;;;;;;;;5091580;28;2036;-40
2023/04/21 05:07:58;;;;;;;;;;;;;;;;;;5091322;28;2010;-40
2023/04/21 05:10:25;;;;;;;;;;;;;;;;;;5091092;28;1970;-40
2023/04/21 05:12:53;;;;;;;;;;;;;;;;;;5091050;28;2022;-39
2023/04/21 05:15:21;;;;;;;;;;;;;;;;;;5091349;28;2003;-41
2023/04/21 05:17:48;;;;;;;;;;;;;;;;;;5090931;28;1910;-49
2023/04/21 05:20:15;;;;;;;;;;;;;;;;;;5091001;28;1915;-40
2023/04/21 05:22:43;;;;;;;;;;;;;;;;;;5091092;28;2293;-46
2023/04/21 05:25:14;;;;;;;;;;;;;;;;;;5090938;28;2150;-40
2023/04/21 05:27:42;;;;;;;;;;;;;;;;;;5091054;28;1854;-42
2023/04/21 05:30:09;;;;;;;;;;;;;;;;;;5091032;28;1862;-39
2023/04/21 05:32:37;;;;;;;;;;;;;;;;;;5091274;28;1814;-40
2023/04/21 05:35:04;;;;;;;;;;;;;;;;;;5090652;28;2010;-40
2023/04/21 05:37:31;;;;;;;;;;;;;;;;;;5090241;28;1970;-40
2023/04/21 05:39:59;;;;;;;;;;;;;;;;;;5089980;28;1910;-40
2023/04/21 05:42:26;;;;;;;;;;;;;;;;;;5094664;28;2259;-40
2023/04/21 05:44:54;;;;;;;;;;;;;;;;;;5094808;28;1980;-50
2023/04/21 05:47:21;;;;;;;;;;;;;;;;;;5101876;28;2061;-41
2023/04/21 05:49:52;;;;;;;;;;;;;;;;;;5114977;28;2130;-41
2023/04/21 05:52:22;;;;;;;;;;;;;;;;;;5114780;28;2225;-45
2023/04/21 05:54:50;;;;;;;;;;;;;;;;;;5114618;28;1979;-40
2023/04/21 05:57:17;;;;;;;;;;;;;;;;;;5114196;28;1801;-41
2023/04/21 05:59:44;;;;;;;;;;;;;;;;;;5114897;28;1974;-41
2023/04/21 06:02:11;;;;;;;;;;;;;;;;;;5114951;28;1903;-40
2023/04/21 06:04:39;;;;;;;;;;;;;;;;;;5114633;28;2121;-40
2023/04/21 06:07:07;;;;;;;;;;;;;;;;;;5114872;28;2119;-40
2023/04/21 06:09:35;;;;;;;;;;;;;;;;;;5114608;28;1911;-40
2023/04/21 06:12:02;;;;;;;;;;;;;;;;;;5114765;28;1900;-41
2023/04/21 06:14:29;;;;;;;;;;;;;;;;;;5114484;28;1778;-60
2023/04/21 06:16:57;;;;;;;;;;;;;;;;;;5114707;28;2067;-40
2023/04/21 06:19:24;;;;;;;;;;;;;;;;;;5113968;28;1907;-41
2023/04/21 06:21:51;;;;;;;;;;;;;;;;;;5114339;28;1737;-41
2023/04/21 06:24:23;;;;;;;;;;;;;;;;;;5114199;28;1944;-40
2023/04/21 06:26:52;;;;;;;;;;;;;;;;;;5114555;28;2326;-41
2023/04/21 06:29:19;;;;;;;;;;;;;;;;;;5113807;28;1987;-41
2023/04/21 06:31:47;;;;;;;;;;;;;;;;;;5114417;28;1788;-41
2023/04/21 06:34:14;;;;;;;;;;;;;;;;;;5114217;28;2158;-42
2023/04/21 06:36:42;;;;;;;;;;;;;;;;;;5114209;28;1991;-40
2023/04/21 06:39:09;;;;;;;;;;;;;;;;;;5113754;28;1920;-46
2023/04/21 06:41:36;;;;;;;;;;;;;;;;;;5114324;28;2155;-40
2023/04/21 06:44:03;;;;;;;;;;;;;;;;;;5114277;28;1983;-41
2023/04/21 06:46:31;;;;;;;;;;;;;;;;;;5112386;28;2048;-41
2023/04/21 06:48:58;;;;;;;;;;;;;;;;;;5093642;28;1994;-40
2023/04/21 06:51:27;;;;;;;;;;;;;;;;;;5093573;28;1852;-49
2023/04/21 06:53:54;;;;;;;;;;;;;;;;;;5092789;28;1971;-50
2023/04/21 06:56:21;;;;;;;;;;;;;;;;;;5093279;28;2123;-42
2023/04/21 06:58:49;;;;;;;;;;;;;;;;;;5093029;28;1984;-41
2023/04/21 07:01:16;;;;;;;;;;;;;;;;;;5093406;28;2086;-40
2023/04/21 07:03:43;;;;;;;;;;;;;;;;;;5093605;28;1822;-40
2023/04/21 07:06:11;;;;;;;;;;;;;;;;;;5093269;28;2015;-41
2023/04/21 07:08:38;;;;;;;;;;;;;;;;;;5093330;28;2061;-40
2023/04/21 07:11:05;;;;;;;;;;;;;;;;;;5093261;28;2255;-41
2023/04/21 07:13:32;;;;;;;;;;;;;;;;;;5093560;28;2053;-40
2023/04/21 07:16:00;;;;;;;;;;;;;;;;;;5093470;28;1982;-48
2023/04/21 07:18:27;;;;;;;;;;;;;;;;;;5092970;28;2057;-46
2023/04/21 07:20:54;;;;;;;;;;;;;;;;;;5092337;28;2129;-43
2023/04/21 07:23:21;;;;;;;;;;;;;;;;;;5092834;28;1936;-46
2023/04/21 07:25:48;;;;;;;;;;;;;;;;;;5092881;28;2089;-50
2023/04/21 07:28:16;;;;;;;;;;;;;;;;;;5092900;28;1944;-46
2023/04/21 07:30:43;;;;;;;;;;;;;;;;;;5091424;28;2385;-47
2023/04/21 07:33:10;;;;;;;;;;;;;;;;;;5092895;28;2169;-50
2023/04/21 07:35:37;;;;;;;;;;;;;;;;;;5092408;28;2146;-45
2023/04/21 07:38:05;;;;;;;;;;;;;;;;;;5093034;28;2018;-48
2023/04/21 07:40:32;;;;;;;;;;;;;;;;;;5092389;28;1914;-47
2023/04/21 07:42:59;;;;;;;;;;;;;;;;;;5092616;28;1932;-41
2023/04/21 07:45:27;;;;;;;;;;;;;;;;;;5073823;28;1932;-41
2023/04/21 07:47:54;;;;;;;;;;;;;;;;;;5105225;28;2089;-41
2023/04/21 07:50:21;;;;;;;;;;;;;;;;;;5112993;28;1862;-58
2023/04/21 07:52:48;;;;;;;;;;;;;;;;;;5112940;28;2075;-56
2023/04/21 07:55:16;;;;;;;;;;;;;;;;;;5112991;28;2291;-41
2023/04/21 07:57:43;;;;;;;;;;;;;;;;;;5112546;28;1885;-42
2023/04/21 08:00:10;;;;;;;;;;;;;;;;;;5112532;28;1977;-61
2023/04/21 08:02:38;;;;;;;;;;;;;;;;;;5112567;28;1927;-40
2023/04/21 08:05:05;;;;;;;;;;;;;;;;;;5111717;28;2116;-62
2023/04/21 08:07:36;;;;;;;;;;;;;;;;;;5112633;28;2086;-60
2023/04/21 08:10:03;;;;;;;;;;;;;;;;;;5112561;28;1777;-41
2023/04/21 08:12:30;;;;;;;;;;;;;;;;;;5112542;28;2047;-41
2023/04/21 08:14:57;;;;;;;;;;;;;;;;;;5112403;28;1955;-40
2023/04/21 08:17:25;;;;;;;;;;;;;;;;;;5112254;28;1923;-41
2023/04/21 08:19:52;;;;;;;;;;;;;;;;;;5111954;28;2039;-42
2023/04/21 08:22:19;;;;;;;;;;;;;;;;;;5112116;28;1949;-40
2023/04/21 08:24:47;;;;;;;;;;;;;;;;;;5112099;28;1916;-41
2023/04/21 08:27:17;;;;;;;;;;;;;;;;;;5111938;28;1849;-41
2023/04/21 08:29:44;;;;;;;;;;;;;;;;;;5111579;28;2187;-40
2023/04/21 08:32:11;;;;;;;;;;;;;;;;;;5110545;28;2043;-41
2023/04/21 08:34:41;;;;;;;;;;;;;;;;;;5110535;28;2341;-41
2023/04/21 08:37:08;;;;;;;;;;;;;;;;;;5110545;28;1792;-41
2023/04/21 08:39:36;;;;;;;;;;;;;;;;;;5110480;28;1906;-41
2023/04/21 08:42:03;;;;;;;;;;;;;;;;;;5110554;28;1999;-47
2023/04/21 08:44:31;;;;;;;;;;;;;;;;;;5110436;28;2140;-41
2023/04/21 08:46:58;;;;;;;;;;;;;;;;;;5105924;28;1981;-41
2023/04/21 08:49:28;;;;;;;;;;;;;;;;;;5091377;28;2007;-40
2023/04/21 08:51:55;;;;;;;;;;;;;;;;;;5091409;28;1873;-41
2023/04/21 08:54:23;;;;;;;;;;;;;;;;;;5091439;28;2037;-41
2023/04/21 08:56:50;;;;;;;;;;;;;;;;;;5073196;28;1961;-41
2023/04/21 08:59:21;;;;;;;;;;;;;;;;;;5091403;28;2167;-55
2023/04/21 09:02:07;;;;;;;;;;;;;;;;;;5091242;28;1894;-41
2023/04/21 09:04:37;;;;;;;;;;;;;;;;;;5091303;28;2031;-41
2023/04/21 09:07:04;;;;;;;;;;;;;;;;;;5091277;28;2108;-52
2023/04/21 09:09:32;;;;;;;;;;;;;;;;;;5091047;28;1990;-41
2023/04/21 09:11:59;;;;;;;;;;;;;;;;;;5091267;28;2035;-41
2023/04/21 09:14:35;;;;;;;;;;;;;;;;;;5091059;28;1904;-40
2023/04/21 09:17:03;;;;;;;;;;;;;;;;;;5094464;28;1789;-42
2023/04/21 09:19:33;;;;;;;;;;;;;;;;;;5108261;28;2054;-42
2023/04/21 09:22:00;;;;;;;;;;;;;;;;;;5115735;28;2261;-42
2023/04/21 09:24:27;;;;;;;;;;;;;;;;;;5115613;28;1995;-43
2023/04/21 09:26:54;;;;;;;;;;;;;;;;;;5115634;28;1913;-41
2023/04/21 09:29:24;;;;;;;;;;;;;;;;;;5115511;28;1995;-46
2023/04/21 09:31:51;;;;;;;;;;;;;;;;;;5115324;28;1914;-45
2023/04/21 09:34:20;;;;;;;;;;;;;;;;;;5115568;28;1936;-42
2023/04/21 09:36:47;;;;;;;;;;;;;;;;;;5115574;28;1890;-42
2023/04/21 09:39:17;;;;;;;;;;;;;;;;;;5115078;28;1933;-41
2023/04/21 09:41:47;;;;;;;;;;;;;;;;;;5115669;28;2106;-42
2023/04/21 09:44:16;;;;;;;;;;;;;;;;;;5114914;28;2028;-41
2023/04/21 09:46:46;;;;;;;;;;;;;;;;;;5111987;28;1925;-44
2023/04/21 09:49:15;;;;;;;;;;;;;;;;;;5094941;28;2010;-40
2023/04/21 09:51:43;;;;;;;;;;;;;;;;;;5095159;28;2000;-41
2023/04/21 09:54:31;;;;;;;;;;;;;;;;;;5094934;28;2021;-41
2023/04/21 09:57:00;;;;;;;;;;;;;;;;;;5094400;28;2072;-42
2023/04/21 09:59:34;;;;;;;;;;;;;;;;;;5094510;28;2012;-41
2023/04/21 10:02:05;;;;;;;;;;;;;;;;;;5094610;28;2003;-42
2023/04/21 10:04:33;;;;;;;;;;;;;;;;;;5094210;28;1901;-44
2023/04/21 10:07:01;;;;;;;;;;;;;;;;;;5094546;28;1847;-41
2023/04/21 10:09:54;;;;;;;;;;;;;;;;;;5094307;28;1882;-41
2023/04/21 10:12:22;;;;;;;;;;;;;;;;;;5092778;28;2101;-41
2023/04/21 10:14:51;;;;;;;;;;;;;;;;;;5094070;28;2052;-43
2023/04/21 10:17:21;;;;;;;;;;;;;;;;;;5094367;28;1965;-40
2023/04/21 10:19:51;;;;;;;;;;;;;;;;;;5094091;28;2151;-41
2023/04/21 10:22:34;;;;;;;;;;;;;;;;;;5094149;28;1996;-40
2023/04/21 10:25:03;;;;;;;;;;;;;;;;;;5094337;28;2004;-40
2023/04/21 10:27:38;;;;;;;;;;;;;;;;;;5092661;28;1970;-41
2023/04/21 10:30:18;;;;;;;;;;;;;;;;;;5094118;28;2325;-41
2023/04/21 10:32:46;;;;;;;;;;;;;;;;;;5093786;28;2084;-41
2023/04/21 10:35:16;;;;;;;;;;;;;;;;;;5094124;28;1896;-39
2023/04/21 10:37:46;;;;;;;;;;;;;;;;;;5093971;28;1858;-43
2023/04/21 10:40:43;;;;;;;;;;;;;;;;;;5094023;28;1978;-40
2023/04/21 10:43:29;;;;;;;;;;;;;;;;;;5084923;28;1836;-41
2023/04/21 10:45:56;;;;;;;;;;;;;;;;;;5093605;28;1974;-41
2023/04/21 10:48:25;;;;;;;;;;;;;;;;;;5110453;28;2240;-41
2023/04/21 10:50:52;;;;;;;;;;;;;;;;;;5114051;28;2118;-41
2023/04/21 10:53:24;;;;;;;;;;;;;;;;;;5113662;28;2085;-45
2023/04/21 10:55:52;;;;;;;;;;;;;;;;;;5113749;28;1956;-40
2023/04/21 10:58:20;;;;;;;;;;;;;;;;;;5113853;28;2059;-40
2023/04/21 11:00:52;;;;;;;;;;;;;;;;;;5113397;28;1979;-41
2023/04/21 11:03:20;;;;;;;;;;;;;;;;;;5113664;28;1864;-40
2023/04/21 11:05:47;;;;;;;;;;;;;;;;;;5114115;28;1996;-44
2023/04/21 11:08:15;;;;;;;;;;;;;;;;;;5113899;28;2091;-41
2023/04/21 11:10:45;;;;;;;;;;;;;;;;;;5113605;28;2120;-42
2023/04/21 11:13:13;;;;;;;;;;;;;;;;;;5113431;28;2409;-40
2023/04/21 11:15:40;;;;;;;;;;;;;;;;;;5113664;28;1989;-53
2023/04/21 11:18:08;;;;;;;;;;;;;;;;;;5113310;28;2111;-41
2023/04/21 11:20:39;;;;;;;;;;;;;;;;;;5113564;28;1959;-41
2023/04/21 11:23:06;;;;;;;;;;;;;;;;;;5113577;28;2021;-40
2023/04/21 11:25:34;;;;;;;;;;;;;;;;;;5113364;28;1790;-41
2023/04/21 11:28:05;;;;;;;;;;;;;;;;;;5112818;28;2082;-40
2023/04/21 11:30:33;;;;;;;;;;;;;;;;;;5111729;28;2037;-40
2023/04/21 11:33:00;;;;;;;;;;;;;;;;;;5111717;28;2018;-41
2023/04/21 11:35:28;;;;;;;;;;;;;;;;;;5111443;28;1888;-41
2023/04/21 11:37:55;;;;;;;;;;;;;;;;;;5111543;28;1781;-41
2023/04/21 11:40:23;;;;;;;;;;;;;;;;;;5111243;28;1898;-44
2023/04/21 11:42:50;;;;;;;;;;;;;;;;;;5111605;28;1973;-43
2023/04/21 11:45:18;;;;;;;;;;;;;;;;;;5111654;28;2039;-40
2023/04/21 11:47:50;;;;;;;;;;;;;;;;;;5111111;28;1886;-41
2023/04/21 11:50:33;;;;;;;;;;;;;;;;;;5111649;28;1868;-40
2023/04/21 11:53:01;;;;;;;;;;;;;;;;;;5111269;28;1826;-41
2023/04/21 11:55:28;;;;;;;;;;;;;;;;;;5111267;28;2027;-41
2023/04/21 11:57:56;;;;;;;;;;;;;;;;;;5110782;28;2040;-41
2023/04/21 12:00:29;;;;;;;;;;;;;;;;;;5111206;28;2030;-47
2023/04/21 12:02:57;;;;;;;;;;;;;;;;;;5110875;28;2082;-40
2023/04/21 12:05:24;;;;;;;;;;;;;;;;;;5110964;28;1980;-47
2023/04/21 12:07:54;;;;;;;;;;;;;;;;;;5110750;28;1919;-46
2023/04/21 12:10:22;;;;;;;;;;;;;;;;;;5111162;28;1955;-41
2023/04/21 12:12:51;;;;;;;;;;;;;;;;;;5111056;28;1950;-39
2023/04/21 12:15:20;;;;;;;;;;;;;;;;;;5110880;28;1911;-40
2023/04/21 12:17:49;;;;;;;;;;;;;;;;;;5110456;28;1938;-42
2023/04/21 12:20:20;;;;;;;;;;;;;;;;;;5110722;28;2035;-41
2023/04/21 12:22:49;;;;;;;;;;;;;;;;;;5111013;28;1944;-41
2023/04/21 12:25:17;;;;;;;;;;;;;;;;;;5111564;28;1865;-40
2023/04/21 12:27:48;;;;;;;;;;;;;;;;;;5112151;28;1897;-40
2023/04/21 12:30:15;;;;;;;;;;;;;;;;;;5111872;28;2123;-40
2023/04/21 12:32:43;;;;;;;;;;;;;;;;;;5093371;28;2078;-40
2023/04/21 12:35:10;;;;;;;;;;;;;;;;;;5112108;28;2152;-57
2023/04/21 12:37:37;;;;;;;;;;;;;;;;;;5112346;28;1983;-40
2023/04/21 12:40:06;;;;;;;;;;;;;;;;;;5112010;28;2070;-53
2023/04/21 12:42:34;;;;;;;;;;;;;;;;;;5111870;28;2097;-40
2023/04/21 12:45:05;;;;;;;;;;;;;;;;;;5111802;28;1879;-45
2023/04/21 12:47:33;;;;;;;;;;;;;;;;;;5101792;28;2069;-41
2023/04/21 12:50:00;;;;;;;;;;;;;;;;;;5091089;28;2034;-40
2023/04/21 12:52:28;;;;;;;;;;;;;;;;;;5091434;28;1996;-52
2023/04/21 12:54:55;;;;;;;;;;;;;;;;;;5090757;28;1784;-40
2023/04/21 12:57:23;;;;;;;;;;;;;;;;;;5091291;28;1889;-40
2023/04/21 12:59:50;;;;;;;;;;;;;;;;;;5091444;28;2102;-41
2023/04/21 13:02:17;;;;;;;;;;;;;;;;;;5091468;28;1910;-41
2023/04/21 13:04:45;;;;;;;;;;;;;;;;;;5091047;28;1985;-40
2023/04/21 13:07:14;;;;;;;;;;;;;;;;;;5091341;28;1900;-45
2023/04/21 13:09:42;;;;;;;;;;;;;;;;;;5091225;28;1855;-45
2023/04/21 13:12:09;;;;;;;;;;;;;;;;;;5091431;28;2065;-41
2023/04/21 13:14:36;;;;;;;;;;;;;;;;;;5091253;28;2081;-51
2023/04/21 13:17:04;;;;;;;;;;;;;;;;;;5091136;28;2073;-56
2023/04/21 13:19:31;;;;;;;;;;;;;;;;;;5091436;28;1953;-41
2023/04/21 13:21:58;;;;;;;;;;;;;;;;;;5091208;28;2007;-52
2023/04/21 13:24:26;;;;;;;;;;;;;;;;;;5091112;28;1966;-52
2023/04/21 13:26:54;;;;;;;;;;;;;;;;;;5091480;28;1825;-42
2023/04/21 13:29:22;;;;;;;;;;;;;;;;;;5091319;28;2012;-60
2023/04/21 13:31:49;;;;;;;;;;;;;;;;;;5091122;28;2216;-49
2023/04/21 13:34:16;;;;;;;;;;;;;;;;;;5090912;28;1948;-41
2023/04/21 13:36:43;;;;;;;;;;;;;;;;;;5090852;28;2026;-42
2023/04/21 13:39:11;;;;;;;;;;;;;;;;;;5093199;28;1970;-48
2023/04/21 13:41:39;;;;;;;;;;;;;;;;;;5111209;28;2170;-41
2023/04/21 13:44:06;;;;;;;;;;;;;;;;;;5110925;28;2143;-45
2023/04/21 13:46:33;;;;;;;;;;;;;;;;;;5109545;28;1913;-41
2023/04/21 13:49:01;;;;;;;;;;;;;;;;;;5090859;28;2162;-43
2023/04/21 13:51:29;;;;;;;;;;;;;;;;;;5091083;28;1967;-40
2023/04/21 13:53:56;;;;;;;;;;;;;;;;;;5091381;28;2001;-42
2023/04/21 13:56:23;;;;;;;;;;;;;;;;;;5090999;28;2129;-41
2023/04/21 13:58:50;;;;;;;;;;;;;;;;;;5090974;28;1720;-45
2023/04/21 14:01:18;;;;;;;;;;;;;;;;;;5090683;28;1997;-42
2023/04/21 14:03:47;;;;;;;;;;;;;;;;;;5093814;28;1812;-41
2023/04/21 14:06:15;;;;;;;;;;;;;;;;;;5092963;28;2024;-48
2023/04/21 14:08:42;;;;;;;;;;;;;;;;;;5093055;28;2004;-44
2023/04/21 14:11:09;;;;;;;;;;;;;;;;;;5092445;28;1966;-40
2023/04/21 14:13:37;;;;;;;;;;;;;;;;;;5092861;28;2014;-49
2023/04/21 14:16:14;;;;;;;;;;;;;;;;;;5092752;28;2084;-51
2023/04/21 14:18:45;;;;;;;;;;;;;;;;;;5092547;28;2083;-50
2023/04/21 14:21:13;;;;;;;;;;;;;;;;;;5092571;28;1917;-41
2023/04/21 14:23:40;;;;;;;;;;;;;;;;;;5092659;28;2025;-52
2023/04/21 14:26:07;;;;;;;;;;;;;;;;;;5092684;28;1855;-51
2023/04/21 14:28:35;;;;;;;;;;;;;;;;;;5092456;28;1977;-42
2023/04/21 14:31:03;;;;;;;;;;;;;;;;;;5092683;28;1972;-55
2023/04/21 14:33:31;;;;;;;;;;;;;;;;;;5092532;28;1858;-52
2023/04/21 14:35:59;;;;;;;;;;;;;;;;;;5092662;28;2051;-48
2023/04/21 14:38:28;;;;;;;;;;;;;;;;;;5092834;28;2060;-53
2023/04/21 14:40:55;;;;;;;;;;;;;;;;;;5092196;28;1979;-56
2023/04/21 14:43:23;;;;;;;;;;;;;;;;;;5092180;28;1928;-44
2023/04/21 14:45:51;;;;;;;;;;;;;;;;;;5073991;28;1899;-46
2023/04/21 14:48:19;;;;;;;;;;;;;;;;;;5092113;28;2065;-46
2023/04/21 14:50:46;;;;;;;;;;;;;;;;;;5092390;28;2002;-48
2023/04/21 14:53:14;;;;;;;;;;;;;;;;;;5091796;28;1969;-44
2023/04/21 14:55:41;;;;;;;;;;;;;;;;;;5092124;28;1923;-47
2023/04/21 14:58:08;;;;;;;;;;;;;;;;;;5091368;28;2042;-45
2023/04/21 15:00:35;;;;;;;;;;;;;;;;;;5092297;28;1799;-43
2023/04/21 15:03:03;;;;;;;;;;;;;;;;;;5091933;28;1959;-47
2023/04/21 15:05:31;;;;;;;;;;;;;;;;;;5092003;28;2074;-50
2023/04/21 15:07:58;;;;;;;;;;;;;;;;;;5092336;28;2139;-41
2023/04/21 15:10:26;;;;;;;;;;;;;;;;;;5091675;28;2023;-43
2023/04/21 15:12:53;;;;;;;;;;;;;;;;;;5091224;28;1994;-43
2023/04/21 15:15:20;;;;;;;;;;;;;;;;;;5091385;28;1816;-46
2023/04/21 15:17:48;;;;;;;;;;;;;;;;;;5091573;28;1844;-55
2023/04/21 15:20:15;;;;;;;;;;;;;;;;;;5091609;28;1957;-50
2023/04/21 15:22:42;;;;;;;;;;;;;;;;;;5091367;28;1978;-56
2023/04/21 15:25:10;;;;;;;;;;;;;;;;;;5091736;28;2000;-42
2023/04/21 15:27:37;;;;;;;;;;;;;;;;;;5091122;28;1787;-55
2023/04/21 15:30:04;;;;;;;;;;;;;;;;;;5091691;28;2039;-48
2023/04/21 15:32:32;;;;;;;;;;;;;;;;;;5091480;28;1902;-55
2023/04/21 15:35:00;;;;;;;;;;;;;;;;;;5091393;28;1890;-42
2023/04/21 15:37:27;;;;;;;;;;;;;;;;;;5091358;28;2184;-40
2023/04/21 15:39:54;;;;;;;;;;;;;;;;;;5091269;28;1819;-43
2023/04/21 15:42:22;;;;;;;;;;;;;;;;;;5091079;28;1989;-43
2023/04/21 15:44:50;;;;;;;;;;;;;;;;;;5091131;28;2083;-54
2023/04/21 15:47:18;;;;;;;;;;;;;;;;;;5098194;28;1869;-46
2023/04/21 15:49:45;;;;;;;;;;;;;;;;;;5111454;28;1998;-48
2023/04/21 15:52:13;;;;;;;;;;;;;;;;;;5111504;28;1787;-45
2023/04/21 15:54:40;;;;;;;;;;;;;;;;;;5110911;28;2008;-41
2023/04/21 15:57:07;;;;;;;;;;;;;;;;;;5093191;28;1727;-45
2023/04/21 15:59:34;;;;;;;;;;;;;;;;;;5110890;28;1869;-41
2023/04/21 16:02:02;;;;;;;;;;;;;;;;;;5111447;28;2004;-47
2023/04/21 16:04:29;;;;;;;;;;;;;;;;;;5111111;28;1955;-42
2023/04/21 16:06:57;;;;;;;;;;;;;;;;;;5110649;28;1924;-47
2023/04/21 16:09:24;;;;;;;;;;;;;;;;;;5110880;28;1895;-42
2023/04/21 16:11:52;;;;;;;;;;;;;;;;;;5110806;28;2045;-52
2023/04/21 16:14:19;;;;;;;;;;;;;;;;;;5111152;28;1857;-43
2023/04/21 16:16:46;;;;;;;;;;;;;;;;;;5110586;28;1679;-43
2023/04/21 16:19:13;;;;;;;;;;;;;;;;;;5110526;28;2038;-44
2023/04/21 16:21:41;;;;;;;;;;;;;;;;;;5110365;28;1914;-41
2023/04/21 16:24:08;;;;;;;;;;;;;;;;;;5092468;28;1949;-41
2023/04/21 16:26:35;;;;;;;;;;;;;;;;;;5110262;28;1716;-42
2023/04/21 16:29:03;;;;;;;;;;;;;;;;;;5110858;28;1864;-45
2023/04/21 16:31:30;;;;;;;;;;;;;;;;;;5110162;28;1866;-41
2023/04/21 16:33:58;;;;;;;;;;;;;;;;;;5110462;28;1821;-47
2023/04/21 16:36:31;;;;;;;;;;;;;;;;;;5110547;28;1888;-41
2023/04/21 16:38:59;;;;;;;;;;;;;;;;;;5109495;28;1868;-41
2023/04/21 16:41:29;;;;;;;;;;;;;;;;;;5109128;28;1993;-42
2023/04/21 16:43:56;;;;;;;;;;;;;;;;;;5110088;28;1906;-51
2023/04/21 16:46:23;;;;;;;;;;;;;;;;;;5109871;28;1816;-42
2023/04/21 16:48:51;;;;;;;;;;;;;;;;;;5089635;28;1706;-51
2023/04/21 16:51:19;;;;;;;;;;;;;;;;;;5089704;28;1954;-45
2023/04/21 16:53:46;;;;;;;;;;;;;;;;;;5089687;28;1888;-43
2023/04/21 16:56:13;;;;;;;;;;;;;;;;;;5089935;28;1802;-43
2023/04/21 16:58:41;;;;;;;;;;;;;;;;;;5089947;28;2081;-41
2023/04/21 17:01:08;;;;;;;;;;;;;;;;;;5089549;28;1976;-46
2023/04/21 17:03:35;;;;;;;;;;;;;;;;;;5088906;28;2000;-41
2023/04/21 17:06:09;;;;;;;;;;;;;;;;;;5088600;28;1996;-45
2023/04/21 17:08:36;;;;;;;;;;;;;;;;;;5090100;28;2092;-45
2023/04/21 17:11:04;;;;;;;;;;;;;;;;;;5088963;28;1967;-43